Relevés horaires Kleine Brogel (Belgique)


Relevés horaires à Kleine Brogel - Jeudi 06 Juin 2019
Heure UTC1 Température [°C] Vent [km/h] Hum. [%] Pres.4 [hPa] Visi. [Km] Nébu. [octa] Préc.5 [mm] Cond.
2m. Res. Ros. Dir.2 Vit. Moy. Raf.3
23:00 10.2 10.2 9.0 NNO 1.9 -- 1.9 92 1015.2(0.1/3h) 20 -- -- --
22:00 11.3 11.3 9.9 NNO 1.9 -- 0.0 91 1015.5(0.6/3h) 20 -- -- --
21:00 13.0 13.0 10.1 NNO 1.9 -- 9.3 83 1015.2(0.6/3h) 20 -- -- --
20:00 13.6 13.6 10.2 NNO 1.9 -- 9.3 80 1015(0.5/3h) 20 -- -- --
19:00 15.3 15.3 9.0 NNO 1.9 -- 7.4 66 1014.7(0.2/3h) 20 -- -- --
18:00 17.1 17.1 7.8 S 3.7 -- 14.8 54 1014.5(-0.2/3h) 20 -- -- --
17:00 18.5 18.5 7.8 S 3.7 -- 9.3 50 1014.3(-0.4/3h) 20 -- -- --
16:00 19.1 19.1 7.1 SSO 5.6 -- 11.1 46 1014.3(-0.1/3h) 20 -- -- --
15:00 19.3 19.3 7.5 OSO 5.6 -- 14.8 46 1014.7(0.4/3h) 20 -- -- --
14:00 19.8 19.8 7.6 OSO 5.6 -- 13.0 45 1014.7(0.8/3h) 20 6/8 -- --
13:00 18.1 18.1 7.5 OSO 7.4 -- 14.8 50 1014.6(1.2/3h) 20 6/8 -- --
12:00 18.7 18.7 7.7 O 7.4 -- 20.4 49 1014.2(1.2/3h) 20 5/8 -- --
11:00 17.6 17.6 8.0 SO 7.4 -- 14.8 53 1013.8(1.6/3h) 20 4/8 -- --
10:00 16.6 16.6 8.9 SO 9.3 -- 14.8 60 1013.3(1.6/3h) 20 3/8 -- --
09:00 16.5 16.3 8.7 SO 11.1 -- 20.4 60 1013(2.1/3h) 20 2/8 -- --
08:00 14.1 13.4 9.1 OSO 11.1 -- 18.5 72 1012.2(1.8/3h) 20 3/8 -- --
07:00 12.4 11.3 9.6 OSO 11.1 -- 20.4 83 1011.7(2.2/3h) 20 6/8 -- --
06:00 11.3 9.8 10.1 OSO 13.0 -- 22.2 92 1010.8(2.4/3h) 20 6/8 10/12h
Etat du ciel inchangé
05:00 10.6 9.2 9.6 OSO 11.1 -- 16.7 94 1010.5(2.6/3h) 19 -- -- --
04:00 10.6 9.2 10.0 O 11.1 -- 20.4 96 1009.5(2.8/3h) 20 -- -- --
03:00 11.0 9.4 10.6 OSO 13.0 -- 20.4 97 1008.3(2.4/3h) 4.9 -- -- NA
02:00 11.0 9.9 10.7 OSO 9.3 -- 16.7 98 1007.7(2.6/3h) 16 -- -- NA
01:00 11.0 11.0 10.9 NNO 1.9 -- 16.7 99 1006.6(0.4/3h) 6 -- -- Il y a de la pluie faible et continue à la station au moment de l'observation
00:00 11.1 9.8 10.9 O 11.1 -- 16.7 99 1005.8(0.8/3h) 8 -- 8/6h
Il y a de la pluie faible et continue à la station au moment de l'observation

1 Coordinated Universal Time. Actuellement il est 21:00 locale et 19:00 UTC.

2 Le vent souffle depuis la direction indiquée vers la direction oposée.

3 Les rafales max. sont disponible 40 min après l'heure du relevé.

4 Pour les stations d'altitude (plus de 600m) le géopotentiel du niveau le plus proche de la pression obligatoire est indiqué.

5 Les stations disposant d'un diffuseur peuvent indiquer "trace". Cela signifie que des précipitations ont touchés le sol mais que la quantité est inférieure à 0.1 mm.

Récapitulatif de la journée
Température [°C] Vent [km/h] Ensoleillement4 [h] Precipitations totale5 [mm] Pression [Hpa]
Min1 Max.2 Moy.3 Max. Min Max.
10.6 19.8 0 22.2 0 h 0 min 0 1005.8 1015.5

1 Température minimale relevée entre 18:00 UTC la veille et 18:00 UTC le jour donné.

2 Température maximale relevée entre 06:00 UTC le jour donné et 06:00 UTC le lendemain.

3 Vent moyen de la journée basé sur les relevés horaires.

4 Ensoleillement en heures relevé entre 06:00 UTC la veille et 06:00 UTC le jour donné.

5 Précipitations totales tombées entre 06:00 UTC la jour donné et 06:00 UTC le lendemain.

Graphiques horaires